sensor_id;sensor_type;location;lat;lon;timestamp;temperature;humidity
18426;DHT22;9340;48.756;9.226;2023-02-26T00:02:00;1.80;99.90
18426;DHT22;9340;48.756;9.226;2023-02-26T00:04:27;1.70;99.90
18426;DHT22;9340;48.756;9.226;2023-02-26T00:06:54;1.70;99.90
18426;DHT22;9340;48.756;9.226;2023-02-26T00:09:21;1.70;99.90
18426;DHT22;9340;48.756;9.226;2023-02-26T00:11:48;1.60;99.90
18426;DHT22;9340;48.756;9.226;2023-02-26T00:14:15;1.60;99.90
18426;DHT22;9340;48.756;9.226;2023-02-26T00:16:44;1.50;99.90
18426;DHT22;9340;48.756;9.226;2023-02-26T00:19:14;1.50;99.90
18426;DHT22;9340;48.756;9.226;2023-02-26T00:21:41;1.50;99.90
18426;DHT22;9340;48.756;9.226;2023-02-26T00:24:08;1.30;99.90
18426;DHT22;9340;48.756;9.226;2023-02-26T00:26:34;1.10;99.90
18426;DHT22;9340;48.756;9.226;2023-02-26T00:29:02;1.10;99.90
18426;DHT22;9340;48.756;9.226;2023-02-26T00:31:29;1.00;99.90
18426;DHT22;9340;48.756;9.226;2023-02-26T00:33:57;1.00;99.90
18426;DHT22;9340;48.756;9.226;2023-02-26T00:36:32;1.00;99.90
18426;DHT22;9340;48.756;9.226;2023-02-26T00:39:08;1.00;99.90
18426;DHT22;9340;48.756;9.226;2023-02-26T00:41:40;0.90;99.90
18426;DHT22;9340;48.756;9.226;2023-02-26T00:44:07;0.90;99.90
18426;DHT22;9340;48.756;9.226;2023-02-26T00:46:40;0.90;99.90
18426;DHT22;9340;48.756;9.226;2023-02-26T00:49:17;0.80;99.90
18426;DHT22;9340;48.756;9.226;2023-02-26T00:51:51;0.80;99.90
18426;DHT22;9340;48.756;9.226;2023-02-26T00:54:20;0.70;99.90
18426;DHT22;9340;48.756;9.226;2023-02-26T00:56:48;0.60;99.90
18426;DHT22;9340;48.756;9.226;2023-02-26T00:59:15;0.70;99.90
18426;DHT22;9340;48.756;9.226;2023-02-26T01:01:42;0.60;99.90
18426;DHT22;9340;48.756;9.226;2023-02-26T01:04:10;0.70;99.90
18426;DHT22;9340;48.756;9.226;2023-02-26T01:06:42;0.80;99.90
18426;DHT22;9340;48.756;9.226;2023-02-26T01:09:16;0.80;99.90
18426;DHT22;9340;48.756;9.226;2023-02-26T01:11:45;0.70;99.90
18426;DHT22;9340;48.756;9.226;2023-02-26T01:14:12;0.70;99.90
18426;DHT22;9340;48.756;9.226;2023-02-26T01:16:47;0.70;99.90
18426;DHT22;9340;48.756;9.226;2023-02-26T01:19:23;0.70;99.90
18426;DHT22;9340;48.756;9.226;2023-02-26T01:21:59;0.60;99.90
18426;DHT22;9340;48.756;9.226;2023-02-26T01:24:30;0.60;99.90
18426;DHT22;9340;48.756;9.226;2023-02-26T01:26:57;0.50;99.90
18426;DHT22;9340;48.756;9.226;2023-02-26T01:29:24;0.40;99.90
18426;DHT22;9340;48.756;9.226;2023-02-26T01:31:56;0.40;99.90
18426;DHT22;9340;48.756;9.226;2023-02-26T01:34:30;0.40;99.90
18426;DHT22;9340;48.756;9.226;2023-02-26T01:37:06;0.30;99.90
18426;DHT22;9340;48.756;9.226;2023-02-26T01:39:39;0.20;99.90
18426;DHT22;9340;48.756;9.226;2023-02-26T01:42:13;0.00;99.90
18426;DHT22;9340;48.756;9.226;2023-02-26T01:44:49;0.00;99.90
18426;DHT22;9340;48.756;9.226;2023-02-26T01:47:20;-0.20;99.90
18426;DHT22;9340;48.756;9.226;2023-02-26T01:49:49;-0.40;99.90
18426;DHT22;9340;48.756;9.226;2023-02-26T01:55:29;-0.50;99.90
18426;DHT22;9340;48.756;9.226;2023-02-26T01:57:58;-0.60;99.90
18426;DHT22;9340;48.756;9.226;2023-02-26T02:00:26;-0.60;99.90
18426;DHT22;9340;48.756;9.226;2023-02-26T02:02:54;-0.60;99.90
18426;DHT22;9340;48.756;9.226;2023-02-26T02:05:25;-0.70;99.90
18426;DHT22;9340;48.756;9.226;2023-02-26T02:07:54;-0.80;99.90
18426;DHT22;9340;48.756;9.226;2023-02-26T02:10:21;-0.80;99.90
18426;DHT22;9340;48.756;9.226;2023-02-26T02:12:55;-0.90;99.90
18426;DHT22;9340;48.756;9.226;2023-02-26T02:15:28;-0.90;99.90
18426;DHT22;9340;48.756;9.226;2023-02-26T02:18:00;-1.00;99.90
18426;DHT22;9340;48.756;9.226;2023-02-26T02:20:58;-1.00;99.90
18426;DHT22;9340;48.756;9.226;2023-02-26T02:23:35;-1.00;99.90
18426;DHT22;9340;48.756;9.226;2023-02-26T02:32:15;-1.10;99.90
18426;DHT22;9340;48.756;9.226;2023-02-26T02:34:46;-1.20;99.90
18426;DHT22;9340;48.756;9.226;2023-02-26T02:37:18;-1.20;99.90
18426;DHT22;9340;48.756;9.226;2023-02-26T02:39:48;-1.20;99.90
18426;DHT22;9340;48.756;9.226;2023-02-26T02:42:22;-1.20;99.90
18426;DHT22;9340;48.756;9.226;2023-02-26T02:45:04;-1.30;99.90
18426;DHT22;9340;48.756;9.226;2023-02-26T02:47:36;-1.30;99.90
18426;DHT22;9340;48.756;9.226;2023-02-26T02:50:07;-1.40;99.90
18426;DHT22;9340;48.756;9.226;2023-02-26T02:52:38;-1.30;99.90
18426;DHT22;9340;48.756;9.226;2023-02-26T02:55:10;-1.40;99.90
18426;DHT22;9340;48.756;9.226;2023-02-26T02:57:42;-1.30;99.90
18426;DHT22;9340;48.756;9.226;2023-02-26T03:00:12;-1.40;99.90
18426;DHT22;9340;48.756;9.226;2023-02-26T03:02:46;-1.40;99.90
18426;DHT22;9340;48.756;9.226;2023-02-26T03:05:14;-1.50;99.90
18426;DHT22;9340;48.756;9.226;2023-02-26T03:07:47;-1.60;99.90
18426;DHT22;9340;48.756;9.226;2023-02-26T03:10:14;-1.60;99.90
18426;DHT22;9340;48.756;9.226;2023-02-26T03:12:42;-1.60;99.90
18426;DHT22;9340;48.756;9.226;2023-02-26T03:15:09;-1.60;99.90
18426;DHT22;9340;48.756;9.226;2023-02-26T03:17:45;-1.60;99.90
18426;DHT22;9340;48.756;9.226;2023-02-26T03:20:20;-1.60;99.90
18426;DHT22;9340;48.756;9.226;2023-02-26T03:22:58;-1.60;99.90
18426;DHT22;9340;48.756;9.226;2023-02-26T03:25:31;-1.70;99.90
18426;DHT22;9340;48.756;9.226;2023-02-26T03:28:05;-1.80;99.90
18426;DHT22;9340;48.756;9.226;2023-02-26T03:30:35;-1.70;99.90
18426;DHT22;9340;48.756;9.226;2023-02-26T03:33:09;-1.70;99.90
18426;DHT22;9340;48.756;9.226;2023-02-26T03:35:44;-1.70;99.90
18426;DHT22;9340;48.756;9.226;2023-02-26T03:38:22;-1.50;99.90
18426;DHT22;9340;48.756;9.226;2023-02-26T03:40:54;-1.40;99.90
18426;DHT22;9340;48.756;9.226;2023-02-26T03:43:27;-1.40;99.90
18426;DHT22;9340;48.756;9.226;2023-02-26T03:45:58;-1.40;99.90
18426;DHT22;9340;48.756;9.226;2023-02-26T03:48:29;-1.50;99.90
18426;DHT22;9340;48.756;9.226;2023-02-26T03:50:59;-1.60;99.90
18426;DHT22;9340;48.756;9.226;2023-02-26T03:53:30;-1.70;99.90
18426;DHT22;9340;48.756;9.226;2023-02-26T03:56:02;-1.70;99.90
18426;DHT22;9340;48.756;9.226;2023-02-26T03:58:31;-1.80;99.90
18426;DHT22;9340;48.756;9.226;2023-02-26T04:01:00;-1.70;99.90
18426;DHT22;9340;48.756;9.226;2023-02-26T04:03:32;-1.70;99.90
18426;DHT22;9340;48.756;9.226;2023-02-26T04:06:01;-1.80;99.90
18426;DHT22;9340;48.756;9.226;2023-02-26T04:08:29;-1.90;99.90
18426;DHT22;9340;48.756;9.226;2023-02-26T04:10:58;-1.90;99.90
18426;DHT22;9340;48.756;9.226;2023-02-26T04:13:25;-1.90;99.90
18426;DHT22;9340;48.756;9.226;2023-02-26T04:15:52;-1.90;99.90
18426;DHT22;9340;48.756;9.226;2023-02-26T04:18:19;-2.00;99.90
18426;DHT22;9340;48.756;9.226;2023-02-26T04:20:47;-2.10;99.90
18426;DHT22;9340;48.756;9.226;2023-02-26T04:23:14;-2.10;99.90
18426;DHT22;9340;48.756;9.226;2023-02-26T04:25:40;-2.00;99.90
18426;DHT22;9340;48.756;9.226;2023-02-26T04:28:07;-2.00;99.90
18426;DHT22;9340;48.756;9.226;2023-02-26T04:30:34;-2.10;99.90
18426;DHT22;9340;48.756;9.226;2023-02-26T04:33:00;-2.20;99.90
18426;DHT22;9340;48.756;9.226;2023-02-26T04:35:27;-2.30;99.90
18426;DHT22;9340;48.756;9.226;2023-02-26T04:37:55;-2.20;99.90
18426;DHT22;9340;48.756;9.226;2023-02-26T04:40:22;-2.20;99.90
18426;DHT22;9340;48.756;9.226;2023-02-26T04:42:49;-2.20;99.90
18426;DHT22;9340;48.756;9.226;2023-02-26T04:45:15;-2.30;99.90
18426;DHT22;9340;48.756;9.226;2023-02-26T04:47:42;-2.30;99.90
18426;DHT22;9340;48.756;9.226;2023-02-26T04:50:10;-2.40;99.90
18426;DHT22;9340;48.756;9.226;2023-02-26T04:52:37;-2.50;99.90
18426;DHT22;9340;48.756;9.226;2023-02-26T04:55:06;-2.50;99.90
18426;DHT22;9340;48.756;9.226;2023-02-26T04:57:33;-2.50;99.90
18426;DHT22;9340;48.756;9.226;2023-02-26T05:00:00;-2.50;99.90
18426;DHT22;9340;48.756;9.226;2023-02-26T05:02:30;-2.40;99.90
18426;DHT22;9340;48.756;9.226;2023-02-26T05:04:57;-2.40;99.90
18426;DHT22;9340;48.756;9.226;2023-02-26T05:07:24;-2.40;99.90
18426;DHT22;9340;48.756;9.226;2023-02-26T05:09:50;-2.40;99.90
18426;DHT22;9340;48.756;9.226;2023-02-26T05:12:18;-2.50;99.90
18426;DHT22;9340;48.756;9.226;2023-02-26T05:14:45;-2.60;99.90
18426;DHT22;9340;48.756;9.226;2023-02-26T05:17:11;-2.60;99.90
18426;DHT22;9340;48.756;9.226;2023-02-26T05:19:38;-2.60;99.90
18426;DHT22;9340;48.756;9.226;2023-02-26T05:22:05;-2.60;99.90
18426;DHT22;9340;48.756;9.226;2023-02-26T05:24:32;-2.60;99.90
18426;DHT22;9340;48.756;9.226;2023-02-26T05:26:59;-2.60;99.90
18426;DHT22;9340;48.756;9.226;2023-02-26T05:29:27;-2.70;99.90
18426;DHT22;9340;48.756;9.226;2023-02-26T05:31:54;-2.70;99.90
18426;DHT22;9340;48.756;9.226;2023-02-26T05:34:21;-2.70;99.90
18426;DHT22;9340;48.756;9.226;2023-02-26T05:36:47;-2.70;99.90
18426;DHT22;9340;48.756;9.226;2023-02-26T05:39:14;-2.70;99.90
18426;DHT22;9340;48.756;9.226;2023-02-26T05:41:40;-2.70;99.90
18426;DHT22;9340;48.756;9.226;2023-02-26T05:44:07;-2.70;99.90
18426;DHT22;9340;48.756;9.226;2023-02-26T05:46:35;-2.70;99.90
18426;DHT22;9340;48.756;9.226;2023-02-26T05:49:02;-2.70;99.90
18426;DHT22;9340;48.756;9.226;2023-02-26T05:51:28;-2.60;99.90
18426;DHT22;9340;48.756;9.226;2023-02-26T05:53:55;-2.60;99.90
18426;DHT22;9340;48.756;9.226;2023-02-26T05:56:22;-2.60;99.90
18426;DHT22;9340;48.756;9.226;2023-02-26T05:58:48;-2.60;99.90
18426;DHT22;9340;48.756;9.226;2023-02-26T06:01:15;-2.60;99.90
18426;DHT22;9340;48.756;9.226;2023-02-26T06:03:43;-2.70;99.90
18426;DHT22;9340;48.756;9.226;2023-02-26T06:06:10;-2.70;99.90
18426;DHT22;9340;48.756;9.226;2023-02-26T06:08:36;-2.70;99.90
18426;DHT22;9340;48.756;9.226;2023-02-26T06:11:04;-2.70;99.90
18426;DHT22;9340;48.756;9.226;2023-02-26T06:13:30;-2.80;99.90
18426;DHT22;9340;48.756;9.226;2023-02-26T06:15:57;-2.70;99.90
18426;DHT22;9340;48.756;9.226;2023-02-26T06:18:24;-2.60;99.90
18426;DHT22;9340;48.756;9.226;2023-02-26T06:20:52;-2.60;99.90
18426;DHT22;9340;48.756;9.226;2023-02-26T06:23:19;-2.60;99.90
18426;DHT22;9340;48.756;9.226;2023-02-26T06:25:46;-2.70;99.90
18426;DHT22;9340;48.756;9.226;2023-02-26T06:28:12;-2.70;99.90
18426;DHT22;9340;48.756;9.226;2023-02-26T06:30:39;-2.70;99.90
18426;DHT22;9340;48.756;9.226;2023-02-26T06:33:06;-2.70;99.90
18426;DHT22;9340;48.756;9.226;2023-02-26T06:35:32;-2.60;99.90
18426;DHT22;9340;48.756;9.226;2023-02-26T06:38:00;-2.40;99.90
18426;DHT22;9340;48.756;9.226;2023-02-26T06:40:27;-2.30;99.90
18426;DHT22;9340;48.756;9.226;2023-02-26T06:42:55;-2.20;99.90
18426;DHT22;9340;48.756;9.226;2023-02-26T06:45:21;-2.10;99.90
18426;DHT22;9340;48.756;9.226;2023-02-26T06:47:49;-1.90;99.90
18426;DHT22;9340;48.756;9.226;2023-02-26T06:50:16;-1.80;99.90
18426;DHT22;9340;48.756;9.226;2023-02-26T06:52:43;-1.70;99.90
18426;DHT22;9340;48.756;9.226;2023-02-26T06:55:11;-1.80;99.90
18426;DHT22;9340;48.756;9.226;2023-02-26T06:57:38;-1.80;99.90
18426;DHT22;9340;48.756;9.226;2023-02-26T07:00:06;-1.70;99.90
18426;DHT22;9340;48.756;9.226;2023-02-26T07:02:33;-1.50;99.90
18426;DHT22;9340;48.756;9.226;2023-02-26T07:05:00;-1.40;99.90
18426;DHT22;9340;48.756;9.226;2023-02-26T07:07:26;-1.30;99.90
18426;DHT22;9340;48.756;9.226;2023-02-26T07:09:53;-1.10;99.90
18426;DHT22;9340;48.756;9.226;2023-02-26T07:12:21;-1.00;99.90
18426;DHT22;9340;48.756;9.226;2023-02-26T07:14:48;-0.80;99.90
18426;DHT22;9340;48.756;9.226;2023-02-26T07:17:14;-0.60;99.90
18426;DHT22;9340;48.756;9.226;2023-02-26T07:19:45;-0.40;99.90
18426;DHT22;9340;48.756;9.226;2023-02-26T07:22:12;-0.20;99.90
18426;DHT22;9340;48.756;9.226;2023-02-26T07:24:39;-0.10;99.90
18426;DHT22;9340;48.756;9.226;2023-02-26T07:27:06;0.20;99.90
18426;DHT22;9340;48.756;9.226;2023-02-26T07:29:34;0.50;99.90
18426;DHT22;9340;48.756;9.226;2023-02-26T07:32:01;0.60;99.90
18426;DHT22;9340;48.756;9.226;2023-02-26T07:34:28;0.90;99.90
18426;DHT22;9340;48.756;9.226;2023-02-26T07:36:54;1.20;99.90
18426;DHT22;9340;48.756;9.226;2023-02-26T07:39:23;1.30;99.90
18426;DHT22;9340;48.756;9.226;2023-02-26T07:41:51;1.30;99.90
18426;DHT22;9340;48.756;9.226;2023-02-26T07:44:17;1.30;99.90
18426;DHT22;9340;48.756;9.226;2023-02-26T07:46:45;1.00;99.90
18426;DHT22;9340;48.756;9.226;2023-02-26T07:49:12;0.80;99.90
18426;DHT22;9340;48.756;9.226;2023-02-26T07:51:39;0.80;99.90
18426;DHT22;9340;48.756;9.226;2023-02-26T07:54:10;0.80;99.90
18426;DHT22;9340;48.756;9.226;2023-02-26T07:56:37;0.80;99.90
18426;DHT22;9340;48.756;9.226;2023-02-26T07:59:04;0.80;99.90
18426;DHT22;9340;48.756;9.226;2023-02-26T08:01:30;1.10;99.90
18426;DHT22;9340;48.756;9.226;2023-02-26T08:03:59;1.40;99.90
18426;DHT22;9340;48.756;9.226;2023-02-26T08:06:25;1.70;99.90
18426;DHT22;9340;48.756;9.226;2023-02-26T08:08:52;2.00;99.90
18426;DHT22;9340;48.756;9.226;2023-02-26T08:11:19;2.10;99.90
18426;DHT22;9340;48.756;9.226;2023-02-26T08:13:45;2.00;99.90
18426;DHT22;9340;48.756;9.226;2023-02-26T08:16:12;1.90;99.90
18426;DHT22;9340;48.756;9.226;2023-02-26T08:18:39;2.20;99.90
18426;DHT22;9340;48.756;9.226;2023-02-26T08:21:07;2.50;99.90
18426;DHT22;9340;48.756;9.226;2023-02-26T08:23:35;2.60;99.90
18426;DHT22;9340;48.756;9.226;2023-02-26T08:26:02;2.70;99.90
18426;DHT22;9340;48.756;9.226;2023-02-26T08:28:29;2.70;99.90
18426;DHT22;9340;48.756;9.226;2023-02-26T08:30:56;2.50;99.90
18426;DHT22;9340;48.756;9.226;2023-02-26T08:33:23;2.60;99.90
18426;DHT22;9340;48.756;9.226;2023-02-26T08:35:50;2.90;99.90
18426;DHT22;9340;48.756;9.226;2023-02-26T08:38:19;3.20;99.90
18426;DHT22;9340;48.756;9.226;2023-02-26T08:40:48;3.50;99.90
18426;DHT22;9340;48.756;9.226;2023-02-26T08:43:17;3.50;99.90
18426;DHT22;9340;48.756;9.226;2023-02-26T08:45:43;3.50;99.90
18426;DHT22;9340;48.756;9.226;2023-02-26T08:48:10;2.90;99.90
18426;DHT22;9340;48.756;9.226;2023-02-26T08:50:37;2.40;99.90
18426;DHT22;9340;48.756;9.226;2023-02-26T08:53:05;2.50;99.90
18426;DHT22;9340;48.756;9.226;2023-02-26T08:55:33;2.60;99.90
18426;DHT22;9340;48.756;9.226;2023-02-26T08:57:59;2.50;99.90
18426;DHT22;9340;48.756;9.226;2023-02-26T09:00:26;2.30;99.90
18426;DHT22;9340;48.756;9.226;2023-02-26T09:02:53;2.00;99.90
18426;DHT22;9340;48.756;9.226;2023-02-26T09:05:19;1.90;99.90
18426;DHT22;9340;48.756;9.226;2023-02-26T09:07:46;1.80;99.90
18426;DHT22;9340;48.756;9.226;2023-02-26T09:10:13;1.60;99.90
18426;DHT22;9340;48.756;9.226;2023-02-26T09:12:42;1.70;99.90
18426;DHT22;9340;48.756;9.226;2023-02-26T09:15:10;1.70;99.90
18426;DHT22;9340;48.756;9.226;2023-02-26T09:17:37;1.60;99.90
18426;DHT22;9340;48.756;9.226;2023-02-26T09:20:04;1.70;99.90
18426;DHT22;9340;48.756;9.226;2023-02-26T09:22:31;1.80;99.90
18426;DHT22;9340;48.756;9.226;2023-02-26T09:24:59;1.80;99.90
18426;DHT22;9340;48.756;9.226;2023-02-26T09:27:26;1.80;99.90
18426;DHT22;9340;48.756;9.226;2023-02-26T09:29:54;1.80;99.90
18426;DHT22;9340;48.756;9.226;2023-02-26T09:32:20;2.00;99.90
18426;DHT22;9340;48.756;9.226;2023-02-26T09:34:47;2.30;99.90
18426;DHT22;9340;48.756;9.226;2023-02-26T09:37:14;2.40;99.90
18426;DHT22;9340;48.756;9.226;2023-02-26T09:39:41;2.70;99.90
18426;DHT22;9340;48.756;9.226;2023-02-26T09:42:15;2.70;99.90
18426;DHT22;9340;48.756;9.226;2023-02-26T09:44:43;2.70;99.90
18426;DHT22;9340;48.756;9.226;2023-02-26T09:47:16;2.50;99.90
18426;DHT22;9340;48.756;9.226;2023-02-26T09:49:52;2.30;99.90
18426;DHT22;9340;48.756;9.226;2023-02-26T09:52:24;2.20;99.90
18426;DHT22;9340;48.756;9.226;2023-02-26T09:54:56;2.10;99.90
18426;DHT22;9340;48.756;9.226;2023-02-26T09:57:29;2.10;99.90
18426;DHT22;9340;48.756;9.226;2023-02-26T09:59:57;2.20;99.90
18426;DHT22;9340;48.756;9.226;2023-02-26T10:02:33;2.30;99.90
18426;DHT22;9340;48.756;9.226;2023-02-26T10:05:12;2.30;99.90
18426;DHT22;9340;48.756;9.226;2023-02-26T10:07:45;2.50;99.90
18426;DHT22;9340;48.756;9.226;2023-02-26T10:10:22;2.30;99.90
18426;DHT22;9340;48.756;9.226;2023-02-26T10:12:51;2.10;99.90
18426;DHT22;9340;48.756;9.226;2023-02-26T10:15:20;2.00;99.90
18426;DHT22;9340;48.756;9.226;2023-02-26T10:17:59;2.00;99.90
18426;DHT22;9340;48.756;9.226;2023-02-26T10:20:31;1.70;99.90
18426;DHT22;9340;48.756;9.226;2023-02-26T10:23:03;1.80;99.90
18426;DHT22;9340;48.756;9.226;2023-02-26T10:25:35;1.60;99.90
18426;DHT22;9340;48.756;9.226;2023-02-26T10:28:16;1.70;99.90
18426;DHT22;9340;48.756;9.226;2023-02-26T10:30:51;1.70;99.90
18426;DHT22;9340;48.756;9.226;2023-02-26T10:33:26;1.90;99.90
18426;DHT22;9340;48.756;9.226;2023-02-26T10:36:00;2.10;99.90
18426;DHT22;9340;48.756;9.226;2023-02-26T10:38:30;2.20;99.90
18426;DHT22;9340;48.756;9.226;2023-02-26T10:40:59;2.20;99.90
18426;DHT22;9340;48.756;9.226;2023-02-26T10:43:29;2.20;99.90
18426;DHT22;9340;48.756;9.226;2023-02-26T10:46:16;2.00;99.90
18426;DHT22;9340;48.756;9.226;2023-02-26T10:51:44;2.40;99.90
18426;DHT22;9340;48.756;9.226;2023-02-26T10:54:15;2.40;99.90
18426;DHT22;9340;48.756;9.226;2023-02-26T10:56:43;2.50;99.90
18426;DHT22;9340;48.756;9.226;2023-02-26T10:59:09;2.70;99.90
18426;DHT22;9340;48.756;9.226;2023-02-26T11:01:36;3.10;99.90
18426;DHT22;9340;48.756;9.226;2023-02-26T11:04:06;3.00;99.90
18426;DHT22;9340;48.756;9.226;2023-02-26T11:06:37;3.10;99.90
18426;DHT22;9340;48.756;9.226;2023-02-26T11:09:16;3.30;99.90
18426;DHT22;9340;48.756;9.226;2023-02-26T11:11:46;3.50;99.90
18426;DHT22;9340;48.756;9.226;2023-02-26T11:14:14;3.70;99.90
18426;DHT22;9340;48.756;9.226;2023-02-26T11:16:44;3.80;99.90
18426;DHT22;9340;48.756;9.226;2023-02-26T11:19:14;3.80;99.90
18426;DHT22;9340;48.756;9.226;2023-02-26T11:21:44;3.60;99.90
18426;DHT22;9340;48.756;9.226;2023-02-26T11:24:16;3.30;99.90
18426;DHT22;9340;48.756;9.226;2023-02-26T11:26:47;3.50;99.90
18426;DHT22;9340;48.756;9.226;2023-02-26T11:29:18;3.70;99.90
18426;DHT22;9340;48.756;9.226;2023-02-26T11:31:49;3.50;99.90
18426;DHT22;9340;48.756;9.226;2023-02-26T11:34:21;2.90;99.90
18426;DHT22;9340;48.756;9.226;2023-02-26T11:36:49;2.90;99.90
18426;DHT22;9340;48.756;9.226;2023-02-26T11:39:19;2.80;99.90
18426;DHT22;9340;48.756;9.226;2023-02-26T11:41:48;2.80;99.90
18426;DHT22;9340;48.756;9.226;2023-02-26T11:44:16;2.80;99.90
18426;DHT22;9340;48.756;9.226;2023-02-26T11:46:49;3.00;99.90
18426;DHT22;9340;48.756;9.226;2023-02-26T11:49:19;3.10;99.90
18426;DHT22;9340;48.756;9.226;2023-02-26T11:51:59;3.10;99.90
18426;DHT22;9340;48.756;9.226;2023-02-26T11:54:28;3.10;99.90
18426;DHT22;9340;48.756;9.226;2023-02-26T11:57:00;2.80;99.90
18426;DHT22;9340;48.756;9.226;2023-02-26T11:59:30;2.80;99.90
18426;DHT22;9340;48.756;9.226;2023-02-26T12:02:02;3.00;99.90
18426;DHT22;9340;48.756;9.226;2023-02-26T12:04:31;2.90;99.90
18426;DHT22;9340;48.756;9.226;2023-02-26T12:06:58;2.60;99.90
18426;DHT22;9340;48.756;9.226;2023-02-26T12:09:25;2.60;99.90
18426;DHT22;9340;48.756;9.226;2023-02-26T12:12:12;2.90;99.90
18426;DHT22;9340;48.756;9.226;2023-02-26T12:14:58;3.20;99.90
18426;DHT22;9340;48.756;9.226;2023-02-26T12:17:41;3.20;99.90
18426;DHT22;9340;48.756;9.226;2023-02-26T12:20:19;3.20;99.90
18426;DHT22;9340;48.756;9.226;2023-02-26T12:22:52;3.30;99.90
18426;DHT22;9340;48.756;9.226;2023-02-26T12:25:36;3.20;99.90
18426;DHT22;9340;48.756;9.226;2023-02-26T12:28:23;3.10;99.90
18426;DHT22;9340;48.756;9.226;2023-02-26T12:31:12;2.90;99.90
18426;DHT22;9340;48.756;9.226;2023-02-26T12:33:49;3.00;99.90
18426;DHT22;9340;48.756;9.226;2023-02-26T12:36:28;3.10;99.90
18426;DHT22;9340;48.756;9.226;2023-02-26T12:39:11;2.90;99.90
18426;DHT22;9340;48.756;9.226;2023-02-26T12:41:50;2.60;99.90
18426;DHT22;9340;48.756;9.226;2023-02-26T12:44:28;2.60;99.90
18426;DHT22;9340;48.756;9.226;2023-02-26T12:47:22;2.80;99.90
18426;DHT22;9340;48.756;9.226;2023-02-26T12:50:02;3.20;99.90
18426;DHT22;9340;48.756;9.226;2023-02-26T12:53:07;3.40;99.90
18426;DHT22;9340;48.756;9.226;2023-02-26T12:55:46;3.50;99.90
18426;DHT22;9340;48.756;9.226;2023-02-26T12:58:27;3.80;99.90
18426;DHT22;9340;48.756;9.226;2023-02-26T13:01:21;3.90;99.90
18426;DHT22;9340;48.756;9.226;2023-02-26T13:04:25;3.90;99.90
18426;DHT22;9340;48.756;9.226;2023-02-26T13:07:15;4.10;99.90
18426;DHT22;9340;48.756;9.226;2023-02-26T13:09:56;4.10;99.90
18426;DHT22;9340;48.756;9.226;2023-02-26T13:12:35;4.30;99.90
18426;DHT22;9340;48.756;9.226;2023-02-26T13:18:06;4.10;99.90
18426;DHT22;9340;48.756;9.226;2023-02-26T13:20:36;3.90;99.90
18426;DHT22;9340;48.756;9.226;2023-02-26T13:23:10;3.90;99.90
18426;DHT22;9340;48.756;9.226;2023-02-26T13:25:41;4.00;99.90
18426;DHT22;9340;48.756;9.226;2023-02-26T13:28:25;3.90;99.90
18426;DHT22;9340;48.756;9.226;2023-02-26T13:30:58;3.90;99.90
18426;DHT22;9340;48.756;9.226;2023-02-26T13:33:29;4.00;99.90
18426;DHT22;9340;48.756;9.226;2023-02-26T13:35:57;3.80;99.90
18426;DHT22;9340;48.756;9.226;2023-02-26T13:38:32;3.70;99.90
18426;DHT22;9340;48.756;9.226;2023-02-26T13:41:08;3.60;99.90
18426;DHT22;9340;48.756;9.226;2023-02-26T13:43:51;3.50;99.90
18426;DHT22;9340;48.756;9.226;2023-02-26T13:46:35;3.60;99.90
18426;DHT22;9340;48.756;9.226;2023-02-26T13:49:11;3.50;99.90
18426;DHT22;9340;48.756;9.226;2023-02-26T13:51:41;3.50;99.90
18426;DHT22;9340;48.756;9.226;2023-02-26T13:54:32;3.50;99.90
18426;DHT22;9340;48.756;9.226;2023-02-26T13:57:14;3.60;99.90
18426;DHT22;9340;48.756;9.226;2023-02-26T13:59:53;3.80;99.90
18426;DHT22;9340;48.756;9.226;2023-02-26T14:02:36;4.00;99.90
18426;DHT22;9340;48.756;9.226;2023-02-26T14:05:25;4.40;99.90
18426;DHT22;9340;48.756;9.226;2023-02-26T14:08:06;4.50;99.90
18426;DHT22;9340;48.756;9.226;2023-02-26T14:10:43;4.30;99.90
18426;DHT22;9340;48.756;9.226;2023-02-26T14:13:16;4.20;99.90
18426;DHT22;9340;48.756;9.226;2023-02-26T14:15:49;4.00;99.90
18426;DHT22;9340;48.756;9.226;2023-02-26T14:18:24;3.80;99.90
18426;DHT22;9340;48.756;9.226;2023-02-26T14:20:51;3.80;99.90
18426;DHT22;9340;48.756;9.226;2023-02-26T14:23:33;3.70;99.90
18426;DHT22;9340;48.756;9.226;2023-02-26T14:26:13;3.90;99.90
18426;DHT22;9340;48.756;9.226;2023-02-26T14:28:54;4.20;99.90
18426;DHT22;9340;48.756;9.226;2023-02-26T14:31:23;4.30;99.90
18426;DHT22;9340;48.756;9.226;2023-02-26T14:34:06;4.50;99.90
18426;DHT22;9340;48.756;9.226;2023-02-26T14:36:38;4.50;99.90
18426;DHT22;9340;48.756;9.226;2023-02-26T14:39:12;4.20;99.90
18426;DHT22;9340;48.756;9.226;2023-02-26T14:41:42;4.10;99.90
18426;DHT22;9340;48.756;9.226;2023-02-26T14:44:14;4.10;99.90
18426;DHT22;9340;48.756;9.226;2023-02-26T14:46:45;4.20;99.90
18426;DHT22;9340;48.756;9.226;2023-02-26T14:49:17;4.20;99.90
18426;DHT22;9340;48.756;9.226;2023-02-26T14:51:53;4.00;99.90
18426;DHT22;9340;48.756;9.226;2023-02-26T14:54:33;3.90;99.90
18426;DHT22;9340;48.756;9.226;2023-02-26T14:57:09;3.90;99.90
18426;DHT22;9340;48.756;9.226;2023-02-26T14:59:51;4.00;99.90
18426;DHT22;9340;48.756;9.226;2023-02-26T15:02:25;3.90;99.90
18426;DHT22;9340;48.756;9.226;2023-02-26T15:05:16;3.90;99.90
18426;DHT22;9340;48.756;9.226;2023-02-26T15:14:04;4.30;99.90
18426;DHT22;9340;48.756;9.226;2023-02-26T15:16:42;4.50;99.90
18426;DHT22;9340;48.756;9.226;2023-02-26T15:19:21;4.40;99.90
18426;DHT22;9340;48.756;9.226;2023-02-26T15:22:05;4.10;99.90
18426;DHT22;9340;48.756;9.226;2023-02-26T15:24:33;3.90;99.90
18426;DHT22;9340;48.756;9.226;2023-02-26T15:27:02;3.60;99.90
18426;DHT22;9340;48.756;9.226;2023-02-26T15:29:32;3.50;99.90
18426;DHT22;9340;48.756;9.226;2023-02-26T15:32:14;3.30;99.90
18426;DHT22;9340;48.756;9.226;2023-02-26T15:34:43;3.10;99.90
18426;DHT22;9340;48.756;9.226;2023-02-26T15:37:18;3.20;99.90
18426;DHT22;9340;48.756;9.226;2023-02-26T15:39:48;3.40;99.90
18426;DHT22;9340;48.756;9.226;2023-02-26T15:42:15;3.50;99.90
18426;DHT22;9340;48.756;9.226;2023-02-26T15:44:44;3.50;99.90
18426;DHT22;9340;48.756;9.226;2023-02-26T15:47:14;3.50;99.90
18426;DHT22;9340;48.756;9.226;2023-02-26T15:49:44;3.40;99.90
18426;DHT22;9340;48.756;9.226;2023-02-26T15:52:16;3.20;99.90
18426;DHT22;9340;48.756;9.226;2023-02-26T15:54:46;3.10;99.90
18426;DHT22;9340;48.756;9.226;2023-02-26T15:57:15;3.10;99.90
18426;DHT22;9340;48.756;9.226;2023-02-26T15:59:44;3.00;99.90
18426;DHT22;9340;48.756;9.226;2023-02-26T16:02:14;2.80;99.90
18426;DHT22;9340;48.756;9.226;2023-02-26T16:04:41;2.70;99.90
18426;DHT22;9340;48.756;9.226;2023-02-26T16:07:09;2.70;99.90
18426;DHT22;9340;48.756;9.226;2023-02-26T16:09:39;2.60;99.90
18426;DHT22;9340;48.756;9.226;2023-02-26T16:12:08;2.50;99.90
18426;DHT22;9340;48.756;9.226;2023-02-26T16:14:37;2.50;99.90
18426;DHT22;9340;48.756;9.226;2023-02-26T16:17:06;2.60;99.90
18426;DHT22;9340;48.756;9.226;2023-02-26T16:19:40;2.50;99.90
18426;DHT22;9340;48.756;9.226;2023-02-26T16:22:11;2.50;99.90
18426;DHT22;9340;48.756;9.226;2023-02-26T16:24:39;2.50;99.90
18426;DHT22;9340;48.756;9.226;2023-02-26T16:27:11;2.50;99.90
18426;DHT22;9340;48.756;9.226;2023-02-26T16:29:45;2.30;99.90
18426;DHT22;9340;48.756;9.226;2023-02-26T16:32:16;2.20;99.90
18426;DHT22;9340;48.756;9.226;2023-02-26T16:34:49;2.30;99.90
18426;DHT22;9340;48.756;9.226;2023-02-26T16:37:24;2.30;99.90
18426;DHT22;9340;48.756;9.226;2023-02-26T16:39:54;2.20;99.90
18426;DHT22;9340;48.756;9.226;2023-02-26T16:42:31;2.20;99.90
18426;DHT22;9340;48.756;9.226;2023-02-26T16:45:15;2.20;99.90